createdAt,value
2022-10-08T00:00:12.168Z,9.57639
2022-10-08T00:05:13.071Z,9.60966
2022-10-08T00:10:14.004Z,9.66457
2022-10-08T00:15:14.923Z,9.70722
2022-10-08T00:20:15.844Z,9.70399
2022-10-08T00:25:16.767Z,9.64358
2022-10-08T00:30:17.884Z,9.66684
2022-10-08T00:35:18.927Z,9.64358
2022-10-08T00:40:19.854Z,9.61806
2022-10-08T00:45:20.987Z,9.63421
2022-10-08T00:50:21.940Z,9.5738
2022-10-08T00:55:22.929Z,9.557
2022-10-08T01:00:24.123Z,9.58123
2022-10-08T01:05:25.077Z,9.54602
2022-10-08T01:10:26.006Z,9.52858
2022-10-08T01:15:27.028Z,9.57832
2022-10-08T01:20:27.989Z,9.58834
2022-10-08T01:25:28.937Z,9.61386
2022-10-08T01:30:30.074Z,9.63453
2022-10-08T01:35:30.998Z,9.68719
2022-10-08T01:40:32.013Z,9.67588
2022-10-08T01:45:32.932Z,9.70334
2022-10-08T01:50:33.874Z,9.71626
2022-10-08T01:55:34.845Z,9.68622
2022-10-08T02:00:35.931Z,9.62032
2022-10-08T02:05:36.859Z,9.59964
2022-10-08T02:10:37.778Z,9.5864
2022-10-08T02:15:38.716Z,9.59609
2022-10-08T02:20:39.647Z,9.55506
2022-10-08T02:25:40.586Z,9.57219
2022-10-08T02:30:41.710Z,9.72369
2022-10-08T02:35:42.620Z,9.7589
2022-10-08T02:40:43.678Z,9.72724
2022-10-08T02:45:44.826Z,9.72272
2022-10-08T02:50:45.788Z,9.71432
2022-10-08T02:55:46.750Z,9.74986
2022-10-08T03:00:47.967Z,9.78055
2022-10-08T03:05:48.932Z,9.7967
2022-10-08T03:10:49.893Z,9.74566
2022-10-08T03:15:51.302Z,9.72724
2022-10-08T03:20:52.209Z,9.76827
2022-10-08T03:25:53.192Z,9.78636
2022-10-08T03:30:54.379Z,9.84741
2022-10-08T03:35:55.343Z,9.86324
2022-10-08T03:40:56.385Z,9.86421
2022-10-08T03:45:57.321Z,9.87907
2022-10-08T03:50:58.282Z,9.91687
2022-10-08T03:55:59.253Z,9.97211
2022-10-08T04:01:00.475Z,9.9818
2022-10-08T04:06:01.495Z,9.95531
2022-10-08T04:11:02.427Z,9.98244
2022-10-08T04:16:03.433Z,9.95596
2022-10-08T04:21:04.552Z,9.96015
2022-10-08T04:26:05.500Z,9.91687
2022-10-08T04:31:07.001Z,9.85194
2022-10-08T04:36:08.109Z,9.78345
2022-10-08T04:41:09.039Z,9.75955
2022-10-08T04:46:10.041Z,9.76116
2022-10-08T04:51:11.237Z,9.77021
2022-10-08T04:56:12.253Z,9.77635
2022-10-08T05:01:13.433Z,9.78765
2022-10-08T05:06:14.400Z,9.81511
2022-10-08T05:11:15.334Z,9.74824
2022-10-08T05:16:16.295Z,9.67007
2022-10-08T05:21:17.311Z,9.60804
2022-10-08T05:26:18.293Z,9.58252
2022-10-08T05:31:19.582Z,9.54279
2022-10-08T05:36:20.617Z,9.47107
2022-10-08T05:41:21.592Z,9.45751
2022-10-08T05:46:22.607Z,9.44717
2022-10-08T05:51:23.612Z,9.49886
2022-10-08T05:56:24.633Z,9.57348
2022-10-08T06:01:25.756Z,9.64164
2022-10-08T06:06:26.711Z,9.56669
2022-10-08T06:11:27.631Z,9.55151
2022-10-08T06:16:28.712Z,9.5289
2022-10-08T06:21:29.726Z,9.52825
2022-10-08T06:26:35.418Z,9.57897
2022-10-08T06:31:37.390Z,9.6074
2022-10-08T06:36:38.387Z,9.63033
2022-10-08T06:41:39.340Z,9.6733
2022-10-08T06:46:40.371Z,9.62323
2022-10-08T06:51:41.427Z,9.58866
2022-10-08T06:56:42.551Z,9.83805
2022-10-08T07:01:43.795Z,10.08582
2022-10-08T07:06:44.836Z,10.1136
2022-10-08T07:11:45.795Z,10.08776
2022-10-08T07:16:47.225Z,10.101
2022-10-08T07:21:48.226Z,10.60882
2022-10-08T07:26:49.185Z,10.87791
2022-10-08T07:31:50.411Z,11.25394
2022-10-08T07:36:51.327Z,11.49848
2022-10-08T07:41:52.264Z,11.38541
2022-10-08T07:46:53.223Z,11.31144
2022-10-08T07:51:54.276Z,11.43032
2022-10-08T07:56:55.235Z,12.00082
2022-10-08T08:01:56.411Z,14.22372
2022-10-08T08:06:57.474Z,13.15507
2022-10-08T08:11:58.374Z,14.82299
2022-10-08T08:16:59.449Z,15.30499
2022-10-08T08:22:00.542Z,15.82867
2022-10-08T08:27:01.625Z,19.08194
2022-10-08T08:32:02.847Z,19.76265
2022-10-08T08:37:03.889Z,28.67798
2022-10-08T08:42:04.850Z,24.36495
2022-10-08T08:47:05.823Z,20.02499
2022-10-08T08:52:06.785Z,18.23614
2022-10-08T08:57:08.190Z,18.27685
2022-10-08T09:02:09.597Z,21.22845
2022-10-08T09:07:10.522Z,19.21989
2022-10-08T09:12:11.472Z,22.31885
2022-10-08T09:17:12.451Z,24.33684
2022-10-08T09:22:13.455Z,24.34718
2022-10-08T09:27:14.415Z,25.59529
2022-10-08T09:32:15.549Z,25.12971
2022-10-08T09:37:16.465Z,24.08806
2022-10-08T09:42:17.411Z,21.56575
2022-10-08T09:47:18.365Z,19.89738
2022-10-08T09:52:20.795Z,20.1791
2022-10-08T09:57:22.741Z,20.98388
2022-10-08T10:02:23.878Z,20.3849
2022-10-08T10:07:24.852Z,19.33361
2022-10-08T10:12:25.744Z,18.38249
2022-10-08T10:17:26.669Z,17.76059
2022-10-08T10:22:27.662Z,17.36774
2022-10-08T10:27:28.625Z,17.21461
2022-10-08T10:32:32.061Z,16.90479
2022-10-08T10:37:33.430Z,16.79721
2022-10-08T10:42:34.373Z,16.9904
2022-10-08T10:47:35.332Z,17.01334
2022-10-08T10:52:36.417Z,16.55491
2022-10-08T10:57:37.373Z,16.1023
2022-10-08T11:02:38.564Z,15.9327
2022-10-08T11:07:39.570Z,15.57313
2022-10-08T11:12:40.486Z,15.42711
2022-10-08T11:17:41.439Z,15.48461
2022-10-08T11:22:42.365Z,15.40934
2022-10-08T11:27:43.319Z,15.54664
2022-10-08T11:32:44.509Z,15.50852
2022-10-08T11:37:45.465Z,15.39383
2022-10-08T11:42:48.941Z,15.27592
2022-10-08T11:47:50.254Z,15.05688
2022-10-08T11:52:51.187Z,14.98613
2022-10-08T11:58:07.134Z,14.77841
2022-10-08T12:03:09.623Z,14.4812
2022-10-08T12:08:10.593Z,14.39527
2022-10-08T12:13:16.772Z,14.47603
2022-10-08T12:18:21.335Z,14.49961
2022-10-08T12:23:25.990Z,14.53321
2022-10-08T12:28:26.975Z,14.69441
2022-10-08T12:33:28.159Z,14.73867
2022-10-08T12:38:29.093Z,14.78616
2022-10-08T12:43:30.052Z,14.87985
2022-10-08T12:48:31.062Z,14.90408
2022-10-08T12:53:32.078Z,14.94511
2022-10-08T12:58:33.033Z,15.02749
2022-10-08T13:03:34.217Z,15.11568
2022-10-08T13:08:35.176Z,15.11116
2022-10-08T13:13:36.226Z,15.16672
2022-10-08T13:18:37.236Z,15.12343
2022-10-08T13:23:38.266Z,15.41645
2022-10-08T13:28:59.139Z,15.97114
2022-10-08T13:34:00.841Z,15.78183
2022-10-08T13:39:02.184Z,15.60059
2022-10-08T13:44:03.196Z,15.59316
2022-10-08T13:49:04.185Z,15.59801
2022-10-08T13:54:05.122Z,15.66649
2022-10-08T13:59:06.052Z,15.5489
2022-10-08T14:04:07.141Z,15.60705
2022-10-08T14:09:08.297Z,15.77537
2022-10-08T14:14:09.636Z,15.77634
2022-10-08T14:19:12.344Z,15.87681
2022-10-08T14:24:13.589Z,16.05611
2022-10-08T14:29:14.677Z,15.95757
2022-10-08T14:34:15.856Z,15.87131
2022-10-08T14:39:16.970Z,15.65971
2022-10-08T14:44:17.945Z,15.5111
2022-10-08T14:49:18.878Z,15.33633
2022-10-08T14:54:19.877Z,15.16995
2022-10-08T14:59:20.834Z,15.04558
2022-10-08T15:04:21.971Z,14.7264
2022-10-08T15:09:22.910Z,14.5022
2022-10-08T15:14:23.853Z,14.22954
2022-10-08T15:19:24.796Z,14.15071
2022-10-08T15:24:25.722Z,13.89292
2022-10-08T15:29:26.648Z,13.74431
2022-10-08T15:34:27.852Z,13.60637
2022-10-08T15:39:33.412Z,13.44452
2022-10-08T15:44:36.613Z,13.27912
2022-10-08T15:49:37.574Z,13.24649
2022-10-08T15:54:38.496Z,13.14215
2022-10-08T15:59:39.430Z,13.02875
2022-10-08T16:04:40.619Z,12.83202
2022-10-08T16:09:41.553Z,12.52771
2022-10-08T16:14:42.495Z,12.52964
2022-10-08T16:19:43.475Z,12.59038
2022-10-08T16:24:44.429Z,12.52351
2022-10-08T16:29:45.343Z,12.47182
2022-10-08T16:34:50.080Z,12.43208
2022-10-08T16:39:53.622Z,12.37393
2022-10-08T16:44:54.556Z,12.39203
2022-10-08T16:49:55.482Z,12.42821
2022-10-08T16:54:56.433Z,12.30642
2022-10-08T16:59:57.386Z,12.13262
2022-10-08T17:04:58.581Z,12.07932
2022-10-08T17:09:59.559Z,12.02634
2022-10-08T17:15:00.530Z,11.9375
2022-10-08T17:20:01.488Z,11.79988
2022-10-08T17:25:02.428Z,11.76112
2022-10-08T17:30:03.450Z,11.6726
2022-10-08T17:35:04.698Z,11.61542
2022-10-08T17:40:05.657Z,11.49299
2022-10-08T17:45:06.678Z,11.4371
2022-10-08T17:50:07.648Z,11.42579
2022-10-08T17:55:08.972Z,11.27849
2022-10-08T18:00:10.198Z,11.11761
2022-10-08T18:05:11.368Z,11.05462
2022-10-08T18:10:12.287Z,10.95028
2022-10-08T18:15:13.205Z,10.86725
2022-10-08T18:20:14.146Z,10.75225
2022-10-08T18:25:15.125Z,10.57393
2022-10-08T18:30:16.056Z,10.51288
2022-10-08T18:35:17.225Z,10.58395
2022-10-08T18:40:18.147Z,10.49866
2022-10-08T18:45:19.066Z,10.41823
2022-10-08T18:50:20.022Z,10.42695
2022-10-08T18:55:20.958Z,10.40724
2022-10-08T19:00:21.942Z,10.34813
2022-10-08T19:05:23.086Z,10.34619
2022-10-08T19:10:23.999Z,10.30484
2022-10-08T19:15:24.981Z,10.19274
2022-10-08T19:20:25.882Z,10.14235
2022-10-08T19:25:26.857Z,10.18725
2022-10-08T19:30:32.589Z,10.25994
2022-10-08T19:35:33.970Z,10.21826
2022-10-08T19:40:34.882Z,10.23054
2022-10-08T19:45:35.837Z,10.20663
2022-10-08T19:50:36.738Z,10.11521
2022-10-08T19:55:37.677Z,10.03252
2022-10-08T20:00:38.905Z,9.99375
2022-10-08T20:05:40.072Z,9.99924
2022-10-08T20:10:41.203Z,10.09034
2022-10-08T20:15:42.239Z,10.06643
2022-10-08T20:20:43.221Z,10.04124
2022-10-08T20:25:44.117Z,9.96403
2022-10-08T20:30:45.169Z,9.8752
2022-10-08T20:35:46.327Z,9.78894
2022-10-08T20:40:47.295Z,9.63518
2022-10-08T20:45:48.292Z,9.5205
2022-10-08T20:50:49.218Z,9.50564
2022-10-08T20:55:50.168Z,9.484
2022-10-08T21:00:51.184Z,9.49983
2022-10-08T21:05:52.343Z,9.38547
2022-10-08T21:10:53.270Z,9.30568
2022-10-08T21:15:54.426Z,9.26045
2022-10-08T21:20:55.383Z,9.38385
2022-10-08T21:25:56.343Z,9.34186
2022-10-08T21:31:00.641Z,9.59835
2022-10-08T21:36:05.013Z,9.98729
2022-10-08T21:41:06.325Z,9.82222
2022-10-08T21:46:07.277Z,9.50209
2022-10-08T21:51:08.287Z,9.26562
2022-10-08T21:56:09.354Z,9.1138
2022-10-08T22:01:10.851Z,9.01689
2022-10-08T22:06:12.061Z,9.04241
2022-10-08T22:11:13.077Z,9.00235
2022-10-08T22:16:14.103Z,8.97909
2022-10-08T22:21:15.058Z,8.95777
2022-10-08T22:26:16.001Z,8.90802
2022-10-08T22:31:17.041Z,8.91965
2022-10-08T22:36:18.252Z,8.8586
2022-10-08T22:41:19.186Z,8.73746
2022-10-08T22:46:20.121Z,8.61051
2022-10-08T22:51:21.054Z,8.6244
2022-10-08T22:56:22.059Z,8.54752
2022-10-08T23:01:23.012Z,8.49486
2022-10-08T23:06:24.139Z,8.4674
2022-10-08T23:11:25.068Z,8.38051
2022-10-08T23:16:26.073Z,8.29006
2022-10-08T23:21:28.017Z,8.23223
2022-10-08T23:26:28.971Z,8.21318
2022-10-08T23:31:29.976Z,8.22222
2022-10-08T23:36:31.222Z,8.22028
2022-10-08T23:41:32.199Z,8.26034
2022-10-08T23:46:33.195Z,8.21931
2022-10-08T23:51:34.163Z,8.19606
2022-10-08T23:56:35.124Z,8.1434
